sensor_id;sensor_type;location;lat;lon;timestamp;pressure;altitude;pressure_sealevel;temperature;humidity
48089;BME280;33867;50.314;7.802;2022-09-02T00:01:46;100489.31;;;16.40;55.03
48089;BME280;33867;50.314;7.802;2022-09-02T00:05:06;100488.31;;;16.32;54.95
48089;BME280;33867;50.314;7.802;2022-09-02T00:08:26;100490.19;;;16.32;55.15
48089;BME280;33867;50.314;7.802;2022-09-02T00:11:47;100500.44;;;16.22;55.34
48089;BME280;33867;50.314;7.802;2022-09-02T00:15:07;100486.38;;;16.18;55.40
48089;BME280;33867;50.314;7.802;2022-09-02T00:18:26;100486.19;;;16.20;55.43
48089;BME280;33867;50.314;7.802;2022-09-02T00:21:46;100479.41;;;16.16;55.52
48089;BME280;33867;50.314;7.802;2022-09-02T00:25:06;100490.13;;;16.09;55.95
48089;BME280;33867;50.314;7.802;2022-09-02T00:28:25;100474.84;;;16.08;55.79
48089;BME280;33867;50.314;7.802;2022-09-02T00:31:45;100475.22;;;16.05;55.99
48089;BME280;33867;50.314;7.802;2022-09-02T00:35:06;100476.25;;;16.04;55.72
48089;BME280;33867;50.314;7.802;2022-09-02T00:38:26;100471.31;;;16.07;55.44
48089;BME280;33867;50.314;7.802;2022-09-02T00:41:46;100473.72;;;16.02;56.52
48089;BME280;33867;50.314;7.802;2022-09-02T00:45:07;100479.53;;;15.83;56.07
48089;BME280;33867;50.314;7.802;2022-09-02T00:48:26;100472.59;;;15.81;56.53
48089;BME280;33867;50.314;7.802;2022-09-02T00:51:56;100471.94;;;15.78;56.57
48089;BME280;33867;50.314;7.802;2022-09-02T00:55:20;100469.91;;;15.72;56.08
48089;BME280;33867;50.314;7.802;2022-09-02T00:58:40;100466.53;;;15.54;57.42
48089;BME280;33867;50.314;7.802;2022-09-02T01:02:00;100464.84;;;15.53;57.72
48089;BME280;33867;50.314;7.802;2022-09-02T01:05:22;100468.09;;;15.40;58.09
48089;BME280;33867;50.314;7.802;2022-09-02T01:08:44;100469.13;;;15.31;58.16
48089;BME280;33867;50.314;7.802;2022-09-02T01:12:05;100470.28;;;15.37;57.94
48089;BME280;33867;50.314;7.802;2022-09-02T01:15:25;100466.41;;;15.31;57.97
48089;BME280;33867;50.314;7.802;2022-09-02T01:18:48;100462.66;;;15.32;59.21
48089;BME280;33867;50.314;7.802;2022-09-02T01:22:34;100469.28;;;15.21;58.11
48089;BME280;33867;50.314;7.802;2022-09-02T01:25:54;100465.91;;;15.19;59.05
48089;BME280;33867;50.314;7.802;2022-09-02T01:29:13;100467.78;;;15.11;58.97
48089;BME280;33867;50.314;7.802;2022-09-02T01:32:34;100476.56;;;15.13;59.28
48089;BME280;33867;50.314;7.802;2022-09-02T01:35:53;100471.31;;;15.03;59.22
48089;BME280;33867;50.314;7.802;2022-09-02T01:39:13;100462.19;;;15.04;59.43
48089;BME280;33867;50.314;7.802;2022-09-02T01:42:32;100461.50;;;15.02;59.86
48089;BME280;33867;50.314;7.802;2022-09-02T01:45:53;100459.97;;;15.00;59.08
48089;BME280;33867;50.314;7.802;2022-09-02T01:49:15;100462.84;;;14.98;59.63
48089;BME280;33867;50.314;7.802;2022-09-02T01:52:35;100460.16;;;14.98;59.20
48089;BME280;33867;50.314;7.802;2022-09-02T01:55:54;100456.59;;;14.98;59.22
48089;BME280;33867;50.314;7.802;2022-09-02T01:59:14;100456.25;;;14.93;59.75
48089;BME280;33867;50.314;7.802;2022-09-02T02:02:36;100459.28;;;14.89;59.85
48089;BME280;33867;50.314;7.802;2022-09-02T02:05:55;100462.03;;;14.81;59.88
48089;BME280;33867;50.314;7.802;2022-09-02T02:09:14;100468.28;;;14.82;59.96
48089;BME280;33867;50.314;7.802;2022-09-02T02:12:37;100465.75;;;14.80;60.34
48089;BME280;33867;50.314;7.802;2022-09-02T02:15:56;100466.56;;;14.73;60.47
48089;BME280;33867;50.314;7.802;2022-09-02T02:19:16;100460.97;;;14.74;60.67
48089;BME280;33867;50.314;7.802;2022-09-02T02:22:35;100464.69;;;14.65;60.81
48089;BME280;33867;50.314;7.802;2022-09-02T02:25:55;100464.69;;;14.57;61.03
48089;BME280;33867;50.314;7.802;2022-09-02T02:29:15;100470.72;;;14.43;61.87
48089;BME280;33867;50.314;7.802;2022-09-02T02:32:34;100464.34;;;14.52;61.75
48089;BME280;33867;50.314;7.802;2022-09-02T02:35:54;100466.38;;;14.50;62.06
48089;BME280;33867;50.314;7.802;2022-09-02T02:39:13;100469.00;;;14.42;62.27
48089;BME280;33867;50.314;7.802;2022-09-02T02:42:33;100478.00;;;14.42;62.58
48089;BME280;33867;50.314;7.802;2022-09-02T02:45:56;100473.59;;;14.41;62.52
48089;BME280;33867;50.314;7.802;2022-09-02T02:49:15;100478.00;;;14.34;63.63
48089;BME280;33867;50.314;7.802;2022-09-02T02:52:39;100473.38;;;14.26;63.25
48089;BME280;33867;50.314;7.802;2022-09-02T02:55:58;100471.53;;;14.27;63.18
48089;BME280;33867;50.314;7.802;2022-09-02T02:59:17;100468.84;;;13.93;64.51
48089;BME280;33867;50.314;7.802;2022-09-02T03:02:36;100461.03;;;13.82;64.56
48089;BME280;33867;50.314;7.802;2022-09-02T03:05:56;100460.38;;;13.88;64.04
48089;BME280;33867;50.314;7.802;2022-09-02T03:09:17;100466.16;;;13.93;64.07
48089;BME280;33867;50.314;7.802;2022-09-02T03:12:39;100464.41;;;13.84;63.86
48089;BME280;33867;50.314;7.802;2022-09-02T03:15:59;100462.38;;;13.78;64.43
48089;BME280;33867;50.314;7.802;2022-09-02T03:19:18;100471.13;;;13.71;65.13
48089;BME280;33867;50.314;7.802;2022-09-02T03:22:37;100464.84;;;13.63;65.70
48089;BME280;33867;50.314;7.802;2022-09-02T03:25:59;100467.00;;;13.59;66.64
48089;BME280;33867;50.314;7.802;2022-09-02T03:29:23;100464.25;;;13.51;67.05
48089;BME280;33867;50.314;7.802;2022-09-02T03:32:43;100467.81;;;13.52;66.88
48089;BME280;33867;50.314;7.802;2022-09-02T03:36:04;100461.50;;;13.43;67.15
48089;BME280;33867;50.314;7.802;2022-09-02T03:39:23;100465.16;;;13.34;67.38
48089;BME280;33867;50.314;7.802;2022-09-02T03:42:42;100464.13;;;13.35;67.41
48089;BME280;33867;50.314;7.802;2022-09-02T03:46:02;100459.53;;;13.27;67.86
48089;BME280;33867;50.314;7.802;2022-09-02T03:49:22;100455.50;;;13.13;68.05
48089;BME280;33867;50.314;7.802;2022-09-02T03:52:41;100454.44;;;13.06;68.38
48089;BME280;33867;50.314;7.802;2022-09-02T03:56:05;100454.38;;;12.98;68.56
48089;BME280;33867;50.314;7.802;2022-09-02T03:59:25;100451.13;;;12.95;68.69
48089;BME280;33867;50.314;7.802;2022-09-02T04:02:44;100454.00;;;12.93;68.92
48089;BME280;33867;50.314;7.802;2022-09-02T04:06:04;100458.56;;;12.75;70.62
48089;BME280;33867;50.314;7.802;2022-09-02T04:09:24;100459.19;;;12.69;70.44
48089;BME280;33867;50.314;7.802;2022-09-02T04:12:44;100461.19;;;12.67;69.79
48089;BME280;33867;50.314;7.802;2022-09-02T04:16:11;100464.03;;;12.65;69.88
48089;BME280;33867;50.314;7.802;2022-09-02T04:19:30;100462.50;;;12.63;70.02
48089;BME280;33867;50.314;7.802;2022-09-02T04:22:50;100455.88;;;12.57;71.11
48089;BME280;33867;50.314;7.802;2022-09-02T04:26:12;100467.81;;;12.54;70.59
48089;BME280;33867;50.314;7.802;2022-09-02T04:29:31;100470.44;;;12.46;70.79
48089;BME280;33867;50.314;7.802;2022-09-02T04:32:52;100465.91;;;12.47;71.29
48089;BME280;33867;50.314;7.802;2022-09-02T04:36:13;100464.97;;;12.38;72.36
48089;BME280;33867;50.314;7.802;2022-09-02T04:39:33;100460.03;;;12.34;71.88
48089;BME280;33867;50.314;7.802;2022-09-02T04:42:52;100467.28;;;12.33;71.59
48089;BME280;33867;50.314;7.802;2022-09-02T04:46:14;100458.44;;;12.31;71.89
48089;BME280;33867;50.314;7.802;2022-09-02T04:49:35;100477.66;;;12.28;72.18
48089;BME280;33867;50.314;7.802;2022-09-02T04:52:54;100477.97;;;12.25;72.11
48089;BME280;33867;50.314;7.802;2022-09-02T04:56:18;100471.56;;;12.26;71.89
48089;BME280;33867;50.314;7.802;2022-09-02T04:59:39;100474.59;;;12.23;72.63
48089;BME280;33867;50.314;7.802;2022-09-02T05:03:02;100476.28;;;12.24;72.27
48089;BME280;33867;50.314;7.802;2022-09-02T05:06:24;100473.88;;;12.21;71.94
48089;BME280;33867;50.314;7.802;2022-09-02T05:09:46;100472.88;;;12.22;72.02
48089;BME280;33867;50.314;7.802;2022-09-02T05:13:05;100467.78;;;12.19;72.36
48089;BME280;33867;50.314;7.802;2022-09-02T05:16:28;100471.19;;;12.21;71.96
48089;BME280;33867;50.314;7.802;2022-09-02T05:19:48;100470.88;;;12.24;71.95
48089;BME280;33867;50.314;7.802;2022-09-02T05:23:10;100475.13;;;12.26;71.71
48089;BME280;33867;50.314;7.802;2022-09-02T05:26:32;100477.34;;;12.31;71.21
48089;BME280;33867;50.314;7.802;2022-09-02T05:29:55;100465.97;;;12.37;71.48
48089;BME280;33867;50.314;7.802;2022-09-02T05:33:15;100467.91;;;12.45;71.32
48089;BME280;33867;50.314;7.802;2022-09-02T05:36:35;100472.25;;;12.55;71.12
48089;BME280;33867;50.314;7.802;2022-09-02T05:39:54;100471.06;;;12.58;70.87
48089;BME280;33867;50.314;7.802;2022-09-02T05:43:13;100471.44;;;12.63;71.21
48089;BME280;33867;50.314;7.802;2022-09-02T05:46:33;100478.63;;;12.72;71.22
48089;BME280;33867;50.314;7.802;2022-09-02T05:49:53;100479.84;;;12.78;70.46
48089;BME280;33867;50.314;7.802;2022-09-02T05:53:13;100479.34;;;12.92;70.55
48089;BME280;33867;50.314;7.802;2022-09-02T05:56:32;100475.47;;;12.95;70.40
48089;BME280;33867;50.314;7.802;2022-09-02T05:59:52;100467.44;;;13.03;69.79
48089;BME280;33867;50.314;7.802;2022-09-02T06:03:18;100475.13;;;13.15;69.12
48089;BME280;33867;50.314;7.802;2022-09-02T06:06:40;100472.56;;;13.32;69.17
48089;BME280;33867;50.314;7.802;2022-09-02T06:10:01;100464.94;;;13.53;68.46
48089;BME280;33867;50.314;7.802;2022-09-02T06:13:21;100469.13;;;13.82;67.99
48089;BME280;33867;50.314;7.802;2022-09-02T06:16:43;100468.41;;;13.71;67.73
48089;BME280;33867;50.314;7.802;2022-09-02T06:20:11;100463.44;;;13.93;67.04
48089;BME280;33867;50.314;7.802;2022-09-02T06:23:35;100465.22;;;14.10;66.30
48089;BME280;33867;50.314;7.802;2022-09-02T06:26:56;100464.03;;;15.20;63.75
48089;BME280;33867;50.314;7.802;2022-09-02T06:30:16;100471.31;;;17.15;57.65
48089;BME280;33867;50.314;7.802;2022-09-02T06:33:36;100470.63;;;17.51;55.70
48089;BME280;33867;50.314;7.802;2022-09-02T06:36:56;100464.38;;;17.28;56.24
48089;BME280;33867;50.314;7.802;2022-09-02T06:40:16;100462.22;;;16.85;57.60
48089;BME280;33867;50.314;7.802;2022-09-02T06:43:37;100463.44;;;16.52;58.59
48089;BME280;33867;50.314;7.802;2022-09-02T06:47:04;100459.72;;;17.89;54.90
48089;BME280;33867;50.314;7.802;2022-09-02T06:50:24;100459.94;;;18.74;51.55
48089;BME280;33867;50.314;7.802;2022-09-02T06:53:43;100445.91;;;21.24;46.48
48089;BME280;33867;50.314;7.802;2022-09-02T06:57:03;100449.94;;;21.35;45.60
48089;BME280;33867;50.314;7.802;2022-09-02T07:00:23;100442.22;;;21.97;44.22
48089;BME280;33867;50.314;7.802;2022-09-02T07:03:43;100438.16;;;22.19;44.11
48089;BME280;33867;50.314;7.802;2022-09-02T07:07:21;100432.81;;;21.53;44.42
48089;BME280;33867;50.314;7.802;2022-09-02T07:10:46;100429.38;;;21.91;43.40
48089;BME280;33867;50.314;7.802;2022-09-02T07:14:06;100422.63;;;23.08;42.17
48089;BME280;33867;50.314;7.802;2022-09-02T07:17:27;100419.44;;;23.97;40.56
48089;BME280;33867;50.314;7.802;2022-09-02T07:20:52;100415.38;;;26.02;37.58
48089;BME280;33867;50.314;7.802;2022-09-02T07:24:14;100412.97;;;26.45;35.48
48089;BME280;33867;50.314;7.802;2022-09-02T07:27:34;100411.94;;;27.08;33.89
48089;BME280;33867;50.314;7.802;2022-09-02T07:30:54;100414.13;;;27.23;33.17
48089;BME280;33867;50.314;7.802;2022-09-02T07:34:14;100417.63;;;27.35;32.73
48089;BME280;33867;50.314;7.802;2022-09-02T07:37:34;100414.03;;;27.35;33.31
48089;BME280;33867;50.314;7.802;2022-09-02T07:40:54;100405.78;;;26.44;33.48
48089;BME280;33867;50.314;7.802;2022-09-02T07:44:15;100397.16;;;24.05;39.25
48089;BME280;33867;50.314;7.802;2022-09-02T07:47:35;100408.81;;;22.58;40.89
48089;BME280;33867;50.314;7.802;2022-09-02T07:50:56;100404.72;;;21.77;42.04
48089;BME280;33867;50.314;7.802;2022-09-02T07:54:19;100397.88;;;20.89;44.21
48089;BME280;33867;50.314;7.802;2022-09-02T07:57:40;100404.19;;;21.09;44.13
48089;BME280;33867;50.314;7.802;2022-09-02T08:01:01;100401.66;;;20.88;44.26
48089;BME280;33867;50.314;7.802;2022-09-02T08:04:21;100394.72;;;20.92;44.25
48089;BME280;33867;50.314;7.802;2022-09-02T08:07:42;100387.34;;;21.39;43.97
48089;BME280;33867;50.314;7.802;2022-09-02T08:11:02;100390.50;;;21.16;43.62
48089;BME280;33867;50.314;7.802;2022-09-02T08:14:24;100399.13;;;21.06;44.54
48089;BME280;33867;50.314;7.802;2022-09-02T08:17:46;100392.63;;;21.20;44.13
48089;BME280;33867;50.314;7.802;2022-09-02T08:21:05;100387.97;;;21.01;43.63
48089;BME280;33867;50.314;7.802;2022-09-02T08:24:24;100397.03;;;21.35;43.59
48089;BME280;33867;50.314;7.802;2022-09-02T08:27:47;100392.19;;;21.37;44.00
48089;BME280;33867;50.314;7.802;2022-09-02T08:31:07;100392.78;;;21.19;43.75
48089;BME280;33867;50.314;7.802;2022-09-02T08:34:26;100385.66;;;20.91;43.97
48089;BME280;33867;50.314;7.802;2022-09-02T08:37:45;100389.88;;;21.34;43.24
48089;BME280;33867;50.314;7.802;2022-09-02T08:41:19;100382.06;;;21.30;43.90
48089;BME280;33867;50.314;7.802;2022-09-02T08:44:39;100373.44;;;21.34;44.32
48089;BME280;33867;50.314;7.802;2022-09-02T08:48:18;100379.97;;;21.46;44.14
48089;BME280;33867;50.314;7.802;2022-09-02T08:51:50;100374.22;;;21.54;43.33
48089;BME280;33867;50.314;7.802;2022-09-02T08:55:17;100367.50;;;21.56;43.82
48089;BME280;33867;50.314;7.802;2022-09-02T08:58:40;100361.53;;;21.66;43.32
48089;BME280;33867;50.314;7.802;2022-09-02T09:02:35;100369.53;;;21.81;42.63
48089;BME280;33867;50.314;7.802;2022-09-02T09:06:07;100365.13;;;21.73;40.84
48089;BME280;33867;50.314;7.802;2022-09-02T09:10:08;100356.84;;;21.86;42.09
48089;BME280;33867;50.314;7.802;2022-09-02T09:20:39;100339.84;;;21.71;42.60
48089;BME280;33867;50.314;7.802;2022-09-02T09:24:03;100341.44;;;21.92;41.00
48089;BME280;33867;50.314;7.802;2022-09-02T09:27:25;100339.88;;;22.16;40.98
48089;BME280;33867;50.314;7.802;2022-09-02T09:30:44;100344.47;;;22.22;40.47
48089;BME280;33867;50.314;7.802;2022-09-02T09:34:09;100337.66;;;22.31;40.16
48089;BME280;33867;50.314;7.802;2022-09-02T09:37:32;100335.56;;;22.58;40.24
48089;BME280;33867;50.314;7.802;2022-09-02T09:41:18;100316.69;;;22.68;38.14
48089;BME280;33867;50.314;7.802;2022-09-02T09:44:46;100315.84;;;23.18;39.82
48089;BME280;33867;50.314;7.802;2022-09-02T09:48:25;100302.44;;;23.28;36.26
48089;BME280;33867;50.314;7.802;2022-09-02T09:51:53;100322.88;;;23.32;36.56
48089;BME280;33867;50.314;7.802;2022-09-02T09:55:20;100310.22;;;23.68;36.13
48089;BME280;33867;50.314;7.802;2022-09-02T10:01:59;100301.22;;;24.09;33.13
48089;BME280;33867;50.314;7.802;2022-09-02T10:05:28;100308.66;;;24.38;30.72
48089;BME280;33867;50.314;7.802;2022-09-02T10:12:12;100306.84;;;25.21;29.74
48089;BME280;33867;50.314;7.802;2022-09-02T10:19:25;100290.19;;;27.37;26.82
48089;BME280;33867;50.314;7.802;2022-09-02T10:23:04;100296.47;;;27.32;27.47
48089;BME280;33867;50.314;7.802;2022-09-02T10:26:47;100292.25;;;26.91;28.36
48089;BME280;33867;50.314;7.802;2022-09-02T10:30:16;100288.84;;;27.23;28.73
48089;BME280;33867;50.314;7.802;2022-09-02T10:37:24;100270.47;;;27.72;24.18
48089;BME280;33867;50.314;7.802;2022-09-02T10:40:52;100270.78;;;27.76;26.62
48089;BME280;33867;50.314;7.802;2022-09-02T10:52:18;100256.00;;;29.15;25.31
48089;BME280;33867;50.314;7.802;2022-09-02T10:55:55;100252.56;;;28.98;23.21
48089;BME280;33867;50.314;7.802;2022-09-02T10:59:23;100249.16;;;31.07;23.17
48089;BME280;33867;50.314;7.802;2022-09-02T11:03:10;100255.34;;;30.84;23.94
48089;BME280;33867;50.314;7.802;2022-09-02T11:06:37;100243.09;;;30.60;22.36
48089;BME280;33867;50.314;7.802;2022-09-02T11:10:21;100242.41;;;29.81;21.88
48089;BME280;33867;50.314;7.802;2022-09-02T11:13:59;100234.66;;;31.31;22.44
48089;BME280;33867;50.314;7.802;2022-09-02T11:21:10;100223.88;;;30.02;21.25
48089;BME280;33867;50.314;7.802;2022-09-02T11:24:47;100229.75;;;30.36;23.06
48089;BME280;33867;50.314;7.802;2022-09-02T11:35:43;100202.50;;;30.89;22.09
48089;BME280;33867;50.314;7.802;2022-09-02T11:39:11;100195.09;;;31.93;22.12
48089;BME280;33867;50.314;7.802;2022-09-02T11:42:59;100195.81;;;32.77;21.01
48089;BME280;33867;50.314;7.802;2022-09-02T11:53:42;100187.75;;;32.08;20.41
48089;BME280;33867;50.314;7.802;2022-09-02T11:57:04;100195.09;;;28.88;23.58
48089;BME280;33867;50.314;7.802;2022-09-02T12:00:30;100187.03;;;28.12;23.59
48089;BME280;33867;50.314;7.802;2022-09-02T12:07:46;100189.91;;;31.82;21.29
48089;BME280;33867;50.314;7.802;2022-09-02T12:11:06;100178.88;;;32.45;20.72
48089;BME280;33867;50.314;7.802;2022-09-02T12:18:25;100177.44;;;31.69;21.48
48089;BME280;33867;50.314;7.802;2022-09-02T12:25:45;100167.06;;;32.53;20.84
48089;BME280;33867;50.314;7.802;2022-09-02T12:36:07;100164.97;;;32.40;19.97
48089;BME280;33867;50.314;7.802;2022-09-02T12:42:46;100151.81;;;34.03;19.16
48089;BME280;33867;50.314;7.802;2022-09-02T12:49:59;100148.88;;;30.73;20.97
48089;BME280;33867;50.314;7.802;2022-09-02T12:53:31;100149.25;;;31.81;20.06
48089;BME280;33867;50.314;7.802;2022-09-02T12:56:51;100123.06;;;33.22;20.28
48089;BME280;33867;50.314;7.802;2022-09-02T13:00:24;100130.59;;;32.15;20.29
48089;BME280;33867;50.314;7.802;2022-09-02T13:03:59;100128.91;;;31.85;20.24
48089;BME280;33867;50.314;7.802;2022-09-02T13:07:45;100116.38;;;31.83;21.16
48089;BME280;33867;50.314;7.802;2022-09-02T13:11:20;100117.94;;;31.99;19.92
48089;BME280;33867;50.314;7.802;2022-09-02T13:15:22;100114.91;;;31.51;19.90
48089;BME280;33867;50.314;7.802;2022-09-02T13:22:40;100111.25;;;32.00;19.39
48089;BME280;33867;50.314;7.802;2022-09-02T13:26:17;100102.56;;;32.89;19.92
48089;BME280;33867;50.314;7.802;2022-09-02T13:30:25;100098.56;;;31.84;19.89
48089;BME280;33867;50.314;7.802;2022-09-02T13:33:25;100087.03;;;32.29;18.28
48089;BME280;33867;50.314;7.802;2022-09-02T13:36:45;100092.69;;;30.92;20.80
48089;BME280;33867;50.314;7.802;2022-09-02T13:40:26;100090.16;;;31.50;20.52
48089;BME280;33867;50.314;7.802;2022-09-02T13:43:45;100094.50;;;31.11;20.89
48089;BME280;33867;50.314;7.802;2022-09-02T13:47:16;100086.75;;;32.55;19.59
48089;BME280;33867;50.314;7.802;2022-09-02T13:50:42;100064.97;;;32.04;19.58
48089;BME280;33867;50.314;7.802;2022-09-02T13:54:01;100068.75;;;31.84;19.74
48089;BME280;33867;50.314;7.802;2022-09-02T13:57:23;100073.66;;;32.26;19.64
48089;BME280;33867;50.314;7.802;2022-09-02T14:00:43;100054.44;;;31.23;20.25
48089;BME280;33867;50.314;7.802;2022-09-02T14:04:05;100068.19;;;30.94;20.08
48089;BME280;33867;50.314;7.802;2022-09-02T14:07:40;100065.22;;;30.80;20.93
48089;BME280;33867;50.314;7.802;2022-09-02T14:11:00;100052.06;;;32.66;19.43
48089;BME280;33867;50.314;7.802;2022-09-02T14:14:22;100052.44;;;30.79;20.55
48089;BME280;33867;50.314;7.802;2022-09-02T14:17:42;100041.53;;;31.37;20.23
48089;BME280;33867;50.314;7.802;2022-09-02T14:21:17;100040.44;;;31.77;19.47
48089;BME280;33867;50.314;7.802;2022-09-02T14:24:38;100032.94;;;31.38;20.13
48089;BME280;33867;50.314;7.802;2022-09-02T14:27:58;100026.59;;;31.96;19.96
48089;BME280;33867;50.314;7.802;2022-09-02T14:31:24;100025.69;;;31.71;20.57
48089;BME280;33867;50.314;7.802;2022-09-02T14:34:45;100027.09;;;31.35;20.56
48089;BME280;33867;50.314;7.802;2022-09-02T14:38:05;100018.28;;;31.12;21.00
48089;BME280;33867;50.314;7.802;2022-09-02T14:41:25;100016.75;;;32.09;19.90
48089;BME280;33867;50.314;7.802;2022-09-02T14:44:45;100010.94;;;31.76;20.03
48089;BME280;33867;50.314;7.802;2022-09-02T14:48:19;100015.38;;;29.98;20.73
48089;BME280;33867;50.314;7.802;2022-09-02T14:51:44;100009.28;;;29.71;21.38
48089;BME280;33867;50.314;7.802;2022-09-02T14:55:04;99992.59;;;30.22;21.45
48089;BME280;33867;50.314;7.802;2022-09-02T14:58:27;99991.44;;;30.28;21.64
48089;BME280;33867;50.314;7.802;2022-09-02T15:01:49;99991.84;;;30.71;21.64
48089;BME280;33867;50.314;7.802;2022-09-02T15:05:11;99998.16;;;30.12;21.75
48089;BME280;33867;50.314;7.802;2022-09-02T15:08:32;99994.84;;;29.79;21.88
48089;BME280;33867;50.314;7.802;2022-09-02T15:11:52;99999.94;;;28.74;22.24
48089;BME280;33867;50.314;7.802;2022-09-02T15:15:12;99991.19;;;29.12;22.88
48089;BME280;33867;50.314;7.802;2022-09-02T15:18:30;99993.69;;;29.04;23.17
48089;BME280;33867;50.314;7.802;2022-09-02T15:21:49;99988.47;;;28.03;23.68
48089;BME280;33867;50.314;7.802;2022-09-02T15:25:09;99984.94;;;28.07;24.52
48089;BME280;33867;50.314;7.802;2022-09-02T15:28:28;99994.56;;;28.42;24.57
48089;BME280;33867;50.314;7.802;2022-09-02T15:31:52;99984.25;;;27.90;24.50
48089;BME280;33867;50.314;7.802;2022-09-02T15:35:11;99980.44;;;28.01;24.25
48089;BME280;33867;50.314;7.802;2022-09-02T15:38:30;99992.56;;;27.58;24.64
48089;BME280;33867;50.314;7.802;2022-09-02T15:41:50;99987.91;;;27.31;24.61
48089;BME280;33867;50.314;7.802;2022-09-02T15:45:11;99988.25;;;27.35;24.76
48089;BME280;33867;50.314;7.802;2022-09-02T15:48:31;99982.72;;;27.35;24.48
48089;BME280;33867;50.314;7.802;2022-09-02T15:51:51;99995.81;;;26.96;25.52
48089;BME280;33867;50.314;7.802;2022-09-02T15:55:10;99980.63;;;26.98;25.89
48089;BME280;33867;50.314;7.802;2022-09-02T15:58:29;99982.78;;;26.64;26.36
48089;BME280;33867;50.314;7.802;2022-09-02T16:01:54;99976.59;;;26.57;25.84
48089;BME280;33867;50.314;7.802;2022-09-02T16:05:14;99973.13;;;26.67;26.26
48089;BME280;33867;50.314;7.802;2022-09-02T16:08:33;99967.34;;;26.46;26.04
48089;BME280;33867;50.314;7.802;2022-09-02T16:11:53;99969.41;;;25.96;26.49
48089;BME280;33867;50.314;7.802;2022-09-02T16:15:13;99962.66;;;25.53;26.98
48089;BME280;33867;50.314;7.802;2022-09-02T16:18:33;99965.06;;;25.66;26.69
48089;BME280;33867;50.314;7.802;2022-09-02T16:21:55;99957.91;;;25.82;26.88
48089;BME280;33867;50.314;7.802;2022-09-02T16:25:14;99958.91;;;25.59;27.34
48089;BME280;33867;50.314;7.802;2022-09-02T16:28:35;99966.09;;;25.26;26.87
48089;BME280;33867;50.314;7.802;2022-09-02T16:31:54;99972.75;;;25.30;27.04
48089;BME280;33867;50.314;7.802;2022-09-02T16:35:13;99958.66;;;25.27;27.82
48089;BME280;33867;50.314;7.802;2022-09-02T16:38:32;99957.44;;;25.06;27.09
48089;BME280;33867;50.314;7.802;2022-09-02T16:41:52;99962.56;;;25.14;27.35
48089;BME280;33867;50.314;7.802;2022-09-02T16:45:11;99965.91;;;24.88;28.27
48089;BME280;33867;50.314;7.802;2022-09-02T16:48:31;99964.63;;;24.78;28.00
48089;BME280;33867;50.314;7.802;2022-09-02T16:51:51;99953.75;;;24.72;28.03
48089;BME280;33867;50.314;7.802;2022-09-02T16:55:10;99958.94;;;24.68;28.48
48089;BME280;33867;50.314;7.802;2022-09-02T16:58:35;99954.34;;;24.45;27.75
48089;BME280;33867;50.314;7.802;2022-09-02T17:01:54;99952.59;;;24.39;28.07
48089;BME280;33867;50.314;7.802;2022-09-02T17:05:13;99952.91;;;24.43;28.78
48089;BME280;33867;50.314;7.802;2022-09-02T17:08:35;99961.06;;;24.26;28.60
48089;BME280;33867;50.314;7.802;2022-09-02T17:11:55;99959.28;;;24.32;29.66
48089;BME280;33867;50.314;7.802;2022-09-02T17:15:14;99954.88;;;24.31;29.25
48089;BME280;33867;50.314;7.802;2022-09-02T17:18:34;99950.25;;;23.96;29.04
48089;BME280;33867;50.314;7.802;2022-09-02T17:21:53;99961.72;;;23.93;29.00
48089;BME280;33867;50.314;7.802;2022-09-02T17:25:14;99956.94;;;23.77;28.47
48089;BME280;33867;50.314;7.802;2022-09-02T17:28:33;99953.75;;;23.68;29.04
48089;BME280;33867;50.314;7.802;2022-09-02T17:31:52;99956.25;;;23.70;30.35
48089;BME280;33867;50.314;7.802;2022-09-02T17:35:12;99955.22;;;23.52;32.06
48089;BME280;33867;50.314;7.802;2022-09-02T17:38:31;99956.19;;;23.46;31.86
48089;BME280;33867;50.314;7.802;2022-09-02T17:41:50;99957.63;;;23.37;31.86
48089;BME280;33867;50.314;7.802;2022-09-02T17:45:12;99962.75;;;23.33;32.85
48089;BME280;33867;50.314;7.802;2022-09-02T17:48:31;99957.22;;;23.10;33.13
48089;BME280;33867;50.314;7.802;2022-09-02T17:51:51;99967.94;;;23.00;32.79
48089;BME280;33867;50.314;7.802;2022-09-02T17:55:10;99964.06;;;22.89;34.11
48089;BME280;33867;50.314;7.802;2022-09-02T17:58:39;99970.28;;;22.48;36.90
48089;BME280;33867;50.314;7.802;2022-09-02T18:06:09;99961.03;;;22.12;37.46
48089;BME280;33867;50.314;7.802;2022-09-02T18:09:30;99957.44;;;21.94;37.84
48089;BME280;33867;50.314;7.802;2022-09-02T18:20:06;99970.97;;;21.45;39.51
48089;BME280;33867;50.314;7.802;2022-09-02T18:23:52;99974.00;;;21.30;40.08
48089;BME280;33867;50.314;7.802;2022-09-02T18:27:27;99979.41;;;21.12;40.50
48089;BME280;33867;50.314;7.802;2022-09-02T18:41:19;99989.25;;;20.37;42.11
48089;BME280;33867;50.314;7.802;2022-09-02T18:48:26;99998.59;;;20.09;42.58
48089;BME280;33867;50.314;7.802;2022-09-02T18:51:46;100005.34;;;19.94;43.19
48089;BME280;33867;50.314;7.802;2022-09-02T18:55:11;99999.09;;;19.80;43.50
48089;BME280;33867;50.314;7.802;2022-09-02T18:58:38;100003.50;;;19.68;43.86
48089;BME280;33867;50.314;7.802;2022-09-02T19:02:02;100002.81;;;19.52;44.05
48089;BME280;33867;50.314;7.802;2022-09-02T19:05:25;100012.28;;;19.37;44.39
48089;BME280;33867;50.314;7.802;2022-09-02T19:08:46;100005.34;;;19.21;44.92
48089;BME280;33867;50.314;7.802;2022-09-02T19:12:05;100015.22;;;19.09;45.58
48089;BME280;33867;50.314;7.802;2022-09-02T19:15:24;100013.94;;;18.98;45.91
48089;BME280;33867;50.314;7.802;2022-09-02T19:18:43;100021.03;;;18.86;46.15
48089;BME280;33867;50.314;7.802;2022-09-02T19:22:07;100018.66;;;18.69;46.85
48089;BME280;33867;50.314;7.802;2022-09-02T19:25:28;100022.81;;;18.59;46.25
48089;BME280;33867;50.314;7.802;2022-09-02T19:28:49;100029.84;;;18.47;46.56